REU973 FMCZ-LFPG
Flight info
| Callsign | REU973 |
|---|---|
| Flight time | N/A |
| Altitude | 37000 |
| Route | CZ410 DCT BERIL UR775 SOKAR/N0497F360 UR775 LOTER/N0493F370 UR775 UNPAR/N0496F360 UR775 MOGDU/N0489F380 UR775 SB UV790 ULONI/N0488F390 UG650 RASKA/N0494F380 T513 EGMEG/N0490F390 T513 JDW/N0494F380 M686 OTEMO/N0492F400 M686 LXR P751 METRU UM872 PLH UL604 TRL UM601 KFN UM872 LATAN DCT EKMIL DCT VERUN DCT MIVKI DCT AOSTA DCT ORSUD DCT MOLUS DCT UNKIR DCT TINIL |
| Aircraft | B77W/H-SDE1E2E3FGHIJ2J3J4J5M1RWXY/LB1D1 |
Departure
| Time | 2026-04-27 11:34 |
|---|---|
| Airport | Dzaoudzi Pamandzi International Airport (FMCZ) |
Arrival
| Time | N/A |
|---|---|
| Airport | Charles de Gaulle International Airport (LFPG) |
| Time | Latitude | Longitude | Altitude | Speed | Heading |
|---|---|---|---|---|---|
| 2026-04-27 11:24 | -12.80418 | 45.28156 | 46 ft | 3 kts | 329° |
| 2026-04-27 11:24 | -12.80396 | 45.28141 | 48 ft | 4 kts | 316° |
| 2026-04-27 11:25 | -12.80387 | 45.28117 | 50 ft | 4 kts | 278° |
| 2026-04-27 11:25 | -12.80390 | 45.28092 | 46 ft | 4 kts | 258° |
| 2026-04-27 11:25 | -12.80401 | 45.28068 | 48 ft | 4 kts | 240° |
| 2026-04-27 11:25 | -12.80409 | 45.28053 | 50 ft | 0 kts | 239° |
| 2026-04-27 11:29 | -12.80411 | 45.28050 | 50 ft | 1 kts | 239° |
| 2026-04-27 11:29 | -12.80415 | 45.28043 | 48 ft | 2 kts | 239° |
| 2026-04-27 11:30 | -12.80423 | 45.28030 | 47 ft | 3 kts | 239° |
| 2026-04-27 11:30 | -12.80441 | 45.27996 | 49 ft | 11 kts | 246° |
| 2026-04-27 11:30 | -12.80400 | 45.27904 | 48 ft | 21 kts | 324° |
| 2026-04-27 11:30 | -12.80274 | 45.27828 | 49 ft | 17 kts | 331° |
| 2026-04-27 11:31 | -12.80202 | 45.27751 | 49 ft | 10 kts | 328° |
| 2026-04-27 11:31 | -12.80174 | 45.27767 | 49 ft | 3 kts | 91° |
| 2026-04-27 11:31 | -12.80193 | 45.27781 | 49 ft | 5 kts | 152° |
| 2026-04-27 11:31 | -12.80194 | 45.27782 | 49 ft | 0 kts | 152° |
| 2026-04-27 11:34 | -12.80221 | 45.27797 | 49 ft | 29 kts | 152° |
| 2026-04-27 11:34 | -12.80638 | 45.28040 | 49 ft | 126 kts | 150° |
| 2026-04-27 11:34 | -12.81693 | 45.28656 | 255 ft | 208 kts | 151° |
| 2026-04-27 11:34 | -12.82875 | 45.29511 | 1506 ft | 217 kts | 127° |
| 2026-04-27 11:35 | -12.83281 | 45.31035 | 2908 ft | 229 kts | 82° |
| 2026-04-27 11:35 | -12.82550 | 45.32437 | 4516 ft | 234 kts | 40° |
| 2026-04-27 11:35 | -12.81045 | 45.33116 | 5791 ft | 249 kts | 359° |
| 2026-04-27 11:35 | -12.79383 | 45.33021 | 7351 ft | 237 kts | 360° |
| 2026-04-27 11:36 | -12.77716 | 45.33137 | 8733 ft | 251 kts | 6° |
| 2026-04-27 11:36 | -12.75917 | 45.33346 | 9589 ft | 281 kts | 6° |
| 2026-04-27 11:36 | -12.73809 | 45.33627 | 10048 ft | 329 kts | 8° |
| 2026-04-27 11:36 | -12.71343 | 45.34021 | 10074 ft | 386 kts | 9° |
| 2026-04-27 11:37 | -12.68596 | 45.34497 | 10214 ft | 395 kts | 6° |
| 2026-04-27 11:37 | -12.65955 | 45.34353 | 10221 ft | 373 kts | 343° |
| 2026-04-27 11:37 | -12.63725 | 45.33146 | 10112 ft | 357 kts | 317° |
| 2026-04-27 11:37 | -12.62326 | 45.31143 | 10054 ft | 341 kts | 290° |
| 2026-04-27 11:38 | -12.61997 | 45.28821 | 9998 ft | 326 kts | 263° |
| 2026-04-27 11:38 | -12.62421 | 45.26630 | 9986 ft | 302 kts | 261° |
| 2026-04-27 11:38 | -12.62535 | 45.24566 | 9985 ft | 289 kts | 274° |
| 2026-04-27 11:38 | -12.62223 | 45.22547 | 9996 ft | 286 kts | 284° |
| 2026-04-27 11:39 | -12.61649 | 45.20597 | 10011 ft | 286 kts | 288° |
| 2026-04-27 11:39 | -12.61000 | 45.18709 | 10001 ft | 287 kts | 291° |
| 2026-04-27 11:39 | -12.60240 | 45.16792 | 10011 ft | 288 kts | 293° |
| 2026-04-27 11:39 | -12.59444 | 45.14912 | 10007 ft | 288 kts | 293° |
| 2026-04-27 11:40 | -12.58657 | 45.13046 | 10000 ft | 289 kts | 293° |
| 2026-04-27 11:40 | -12.57865 | 45.11166 | 9997 ft | 288 kts | 293° |
| 2026-04-27 11:40 | -12.57078 | 45.09297 | 9858 ft | 286 kts | 293° |
| 2026-04-27 11:40 | -12.56290 | 45.07426 | 9614 ft | 284 kts | 293° |
| 2026-04-27 11:41 | -12.55482 | 45.05598 | 9315 ft | 278 kts | 301° |
| 2026-04-27 11:41 | -12.54126 | 45.04243 | 8941 ft | 274 kts | 335° |
| 2026-04-27 11:41 | -12.52280 | 45.03903 | 8615 ft | 271 kts | 6° |
| 2026-04-27 11:41 | -12.50499 | 45.04472 | 8274 ft | 270 kts | 30° |
| 2026-04-27 11:42 | -12.49074 | 45.05675 | 7924 ft | 270 kts | 52° |
| 2026-04-27 11:42 | -12.48224 | 45.07370 | 7556 ft | 269 kts | 77° |
| 2026-04-27 11:42 | -12.48197 | 45.09266 | 7205 ft | 268 kts | 105° |
| 2026-04-27 11:42 | -12.49001 | 45.10937 | 6714 ft | 260 kts | 131° |
| 2026-04-27 11:43 | -12.50390 | 45.12098 | 5975 ft | 259 kts | 154° |
| 2026-04-27 11:43 | -12.52052 | 45.12751 | 5497 ft | 250 kts | 161° |
| 2026-04-27 11:43 | -12.53684 | 45.13356 | 5216 ft | 255 kts | 160° |
| 2026-04-27 11:43 | -12.55388 | 45.14001 | 4929 ft | 266 kts | 160° |
| 2026-04-27 11:44 | -12.57133 | 45.14663 | 4705 ft | 263 kts | 160° |
| 2026-04-27 11:44 | -12.58822 | 45.15306 | 4569 ft | 255 kts | 160° |
| 2026-04-27 11:44 | -12.60459 | 45.15952 | 4312 ft | 250 kts | 154° |
| 2026-04-27 11:44 | -12.61927 | 45.16793 | 3994 ft | 234 kts | 149° |
| 2026-04-27 11:45 | -12.63248 | 45.17625 | 3730 ft | 219 kts | 149° |
| 2026-04-27 11:45 | -12.64107 | 45.18159 | 3546 ft | 215 kts | 149° |
| 2026-04-27 11:45 | -12.65797 | 45.19193 | 3263 ft | 209 kts | 149° |
| 2026-04-27 11:45 | -12.67027 | 45.19941 | 3036 ft | 202 kts | 150° |
| 2026-04-27 11:46 | -12.68221 | 45.20657 | 2769 ft | 195 kts | 150° |
| 2026-04-27 11:46 | -12.69368 | 45.21341 | 2559 ft | 186 kts | 150° |
| 2026-04-27 11:46 | -12.70466 | 45.21994 | 2251 ft | 182 kts | 150° |
| 2026-04-27 11:46 | -12.71532 | 45.22629 | 1990 ft | 174 kts | 150° |
| 2026-04-27 11:47 | -12.72582 | 45.23253 | 1783 ft | 175 kts | 150° |
| 2026-04-27 11:47 | -12.73637 | 45.23880 | 1564 ft | 174 kts | 150° |
| 2026-04-27 11:47 | -12.74684 | 45.24502 | 1340 ft | 174 kts | 150° |
| 2026-04-27 11:47 | -12.75693 | 45.25102 | 1093 ft | 161 kts | 150° |
| 2026-04-27 11:48 | -12.76616 | 45.25652 | 1000 ft | 151 kts | 150° |
| 2026-04-27 11:48 | -12.77507 | 45.26190 | 736 ft | 150 kts | 149° |
| 2026-04-27 11:48 | -12.78393 | 45.26745 | 456 ft | 147 kts | 149° |
| 2026-04-27 11:48 | -12.79272 | 45.27252 | 285 ft | 144 kts | 152° |
| 2026-04-27 11:49 | -12.80151 | 45.27757 | 106 ft | 143 kts | 150° |
| 2026-04-27 11:49 | -12.80913 | 45.28204 | 48 ft | 95 kts | 150° |
| 2026-04-27 11:49 | -12.81275 | 45.28417 | 61 ft | 49 kts | 150° |
| 2026-04-27 11:49 | -12.81495 | 45.28547 | 65 ft | 29 kts | 150° |
| 2026-04-27 11:50 | -12.81607 | 45.28603 | 65 ft | 12 kts | 170° |
| 2026-04-27 11:50 | -12.81648 | 45.28615 | 66 ft | 2 kts | 126° |
| 2026-04-27 11:50 | -12.81647 | 45.28626 | 66 ft | 2 kts | 79° |
| 2026-04-27 11:50 | -12.81606 | 45.28630 | 64 ft | 13 kts | 337° |
| 2026-04-27 11:51 | -12.81475 | 45.28537 | 65 ft | 30 kts | 328° |
| 2026-04-27 11:51 | -12.81293 | 45.28429 | 59 ft | 30 kts | 330° |
| 2026-04-27 11:51 | -12.80918 | 45.28206 | 51 ft | 32 kts | 329° |
| 2026-04-27 11:52 | -12.80745 | 45.28105 | 47 ft | 11 kts | 330° |
| 2026-04-27 11:52 | -12.80680 | 45.28068 | 45 ft | 11 kts | 330° |
| 2026-04-27 11:52 | -12.80615 | 45.28029 | 49 ft | 11 kts | 330° |
| 2026-04-27 11:52 | -12.80548 | 45.27990 | 50 ft | 12 kts | 330° |
| 2026-04-27 11:53 | -12.80464 | 45.27982 | 50 ft | 13 kts | 39° |
| 2026-04-27 11:53 | -12.80402 | 45.28064 | 47 ft | 13 kts | 58° |
| 2026-04-27 11:53 | -12.80385 | 45.28103 | 47 ft | 6 kts | 77° |
| 2026-04-27 11:53 | -12.80389 | 45.28143 | 46 ft | 1 kts | 108° |
| 2026-04-27 11:54 | -12.80393 | 45.28156 | 47 ft | 5 kts | 107° |
| 2026-04-27 11:54 | -12.80376 | 45.28194 | 48 ft | 7 kts | 32° |
| 2026-04-27 11:54 | -12.80348 | 45.28211 | 52 ft | 2 kts | 30° |
| 2026-04-27 11:54 | -12.80344 | 45.28213 | 48 ft | 0 kts | 29° |